Sagamore Hill, Pennsylvania
Current Conditions -  °F | °C
As of 12:54 AM on Friday 19 Dec 2014 (Local Time) from KIPT Reporting Station
Overcast Overcast  
Wind Chill: 25°   Ceiling: 2500
Heat Index: 34°   Visibility: 10mi
Dew Point: 26°   Wind: 12mph
Humidity: 73%   Direction: 270°W
Pressure: 30.03"   Gusts: NA
Location:  41.2558°N, 77.4987°W
Report Text: KIPT 190554Z AUTO 27010KT 10SM OVC025 01/M03 A3003 RMK AO2 SLP173 T00111033 10022 20011 58003
Loading
Personal Weather Stations






























Interactive Weather Map New forecast layout! Learn more

10-Day Weather Forecast

Advertisements
Track Severe Weather on mobile